Gaiman, Argentina
Current Conditions -  °F | °C
As of 3:00 AM on Friday 19 Dec 2014 (Local Time) from SAVC Reporting Station
Clear Clear  
Wind Chill: 12°   Ceiling: Unl
Heat Index: 12°   Visibility: 6mi
Dew Point:   Wind: 8mph
Humidity: 54%   Direction: 270°W
Pressure: 29.26"   Gusts: NA
Location:  43.28°S, 65.48°W
Report Text: SAVC 190600Z 27007KT CAVOK 12/03 Q0991
Loading
Personal Weather Stations






























Interactive Weather Map New forecast layout! Learn more

10-Day Weather Forecast

Advertisements
Track Severe Weather on mobile